createdAt,value
2017-10-12T00:01:18.475Z,6.20
2017-10-12T00:03:46.873Z,12.02
2017-10-12T00:06:15.249Z,5.65
2017-10-12T00:08:43.626Z,10.20
2017-10-12T00:11:12.045Z,17.15
2017-10-12T00:13:41.177Z,6.10
2017-10-12T00:16:10.421Z,7.05
2017-10-12T00:18:38.827Z,9.95
2017-10-12T00:21:07.489Z,7.45
2017-10-12T00:23:36.661Z,8.13
2017-10-12T00:26:05.854Z,5.60
2017-10-12T00:28:34.230Z,17.35
2017-10-12T00:31:02.615Z,9.10
2017-10-12T00:33:31.384Z,6.15
2017-10-12T00:35:59.749Z,9.68
2017-10-12T00:38:28.133Z,5.40
2017-10-12T00:40:56.535Z,5.97
2017-10-12T00:43:25.401Z,4.97
2017-10-12T00:45:54.317Z,5.55
2017-10-12T00:48:23.421Z,5.22
2017-10-12T00:50:52.245Z,6.55
2017-10-12T00:53:21.997Z,11.20
2017-10-12T00:55:51.847Z,10.73
2017-10-12T00:58:20.734Z,6.45
2017-10-12T01:00:50.550Z,5.85
2017-10-12T01:03:19.746Z,14.43
2017-10-12T01:05:48.118Z,5.85
2017-10-12T01:08:16.494Z,8.95
2017-10-12T01:10:44.900Z,6.15
2017-10-12T01:13:13.757Z,7.75
2017-10-12T01:15:42.126Z,7.22
2017-10-12T01:18:10.580Z,6.80
2017-10-12T01:20:38.957Z,10.07
2017-10-12T01:23:07.326Z,8.65
2017-10-12T01:25:36.476Z,8.77
2017-10-12T01:28:04.878Z,11.77
2017-10-12T01:30:34.254Z,6.78
2017-10-12T01:33:02.694Z,7.12
2017-10-12T01:35:31.070Z,7.12
2017-10-12T01:37:59.450Z,17.73
2017-10-12T01:40:28.106Z,4.82
2017-10-12T01:42:57.726Z,5.60
2017-10-12T01:45:26.106Z,17.17
2017-10-12T01:47:54.668Z,6.72
2017-10-12T01:50:23.832Z,3.80
2017-10-12T01:52:52.228Z,12.93
2017-10-12T01:55:20.630Z,8.68
2017-10-12T01:57:49.774Z,6.45
2017-10-12T02:00:18.146Z,6.43
2017-10-12T02:02:46.610Z,6.00
2017-10-12T02:05:15.164Z,9.73
2017-10-12T02:07:44.326Z,6.32
2017-10-12T02:10:13.278Z,9.73
2017-10-12T02:12:41.662Z,10.10
2017-10-12T02:15:10.042Z,5.47
2017-10-12T02:17:38.442Z,4.57
2017-10-12T02:20:06.822Z,7.30
2017-10-12T02:22:35.210Z,8.68
2017-10-12T02:25:03.639Z,6.30
2017-10-12T02:27:32.031Z,5.57
2017-10-12T02:30:00.390Z,5.65
2017-10-12T02:32:28.823Z,9.40
2017-10-12T02:34:57.199Z,7.75
2017-10-12T02:37:25.574Z,8.40
2017-10-12T02:39:54.007Z,7.82
2017-10-12T02:42:22.381Z,7.30
2017-10-12T02:44:50.749Z,7.95
2017-10-12T02:47:19.959Z,6.35
2017-10-12T02:49:48.337Z,6.65
2017-10-12T02:52:16.705Z,8.52
2017-10-12T02:54:45.118Z,6.82
2017-10-12T02:57:13.491Z,9.20
2017-10-12T02:59:41.871Z,6.75
2017-10-12T03:02:10.274Z,8.50
2017-10-12T03:04:38.643Z,7.68
2017-10-12T03:07:07.020Z,8.10
2017-10-12T03:09:35.421Z,8.00
2017-10-12T03:12:03.791Z,16.98
2017-10-12T03:14:32.803Z,8.93
2017-10-12T03:17:01.199Z,7.75
2017-10-12T03:19:29.567Z,9.57
2017-10-12T03:21:57.925Z,9.88
2017-10-12T03:24:27.110Z,11.80
2017-10-12T03:26:55.470Z,8.80
2017-10-12T03:29:23.843Z,14.35
2017-10-12T03:31:53.137Z,13.48
2017-10-12T03:34:21.515Z,13.35
2017-10-12T03:36:49.902Z,6.28
2017-10-12T03:39:18.299Z,7.97
2017-10-12T03:41:46.705Z,11.80
2017-10-12T03:44:15.211Z,7.20
2017-10-12T03:46:44.387Z,10.88
2017-10-12T03:49:12.762Z,5.28
2017-10-12T03:51:41.138Z,8.93
2017-10-12T03:54:09.565Z,4.78
2017-10-12T03:56:37.934Z,10.38
2017-10-12T03:59:06.306Z,9.27
2017-10-12T04:01:34.729Z,5.78
2017-10-12T04:04:03.111Z,6.60
2017-10-12T04:06:31.535Z,18.37
2017-10-12T04:09:00.880Z,9.98
2017-10-12T04:11:29.246Z,15.65
2017-10-12T04:13:57.634Z,13.68
2017-10-12T04:16:26.055Z,7.12
2017-10-12T04:18:55.249Z,54.47
2017-10-12T04:21:24.401Z,22.58
2017-10-12T04:23:52.807Z,9.43
2017-10-12T04:26:21.177Z,8.27
2017-10-12T04:28:49.563Z,13.25
2017-10-12T04:31:17.991Z,7.60
2017-10-12T04:33:46.367Z,5.40
2017-10-12T04:36:14.733Z,3.97
2017-10-12T04:38:43.911Z,4.43
2017-10-12T04:41:12.355Z,4.60
2017-10-12T04:43:40.838Z,8.30
2017-10-12T04:46:09.243Z,4.78
2017-10-12T04:48:37.619Z,3.50
2017-10-12T04:51:06.079Z,5.32
2017-10-12T04:53:34.494Z,15.52
2017-10-12T04:56:03.626Z,9.55
2017-10-12T04:58:32.008Z,7.00
2017-10-12T05:01:00.427Z,7.00
2017-10-12T05:03:28.810Z,5.05
2017-10-12T05:05:57.946Z,8.52
2017-10-12T05:08:27.110Z,9.57
2017-10-12T05:10:55.486Z,11.18
2017-10-12T05:13:23.873Z,12.07
2017-10-12T05:15:53.054Z,12.27
2017-10-12T05:18:21.420Z,18.20
2017-10-12T05:20:49.788Z,9.55
2017-10-12T05:23:18.205Z,11.73
2017-10-12T05:25:46.574Z,12.40
2017-10-12T05:28:14.959Z,13.00
2017-10-12T05:30:43.386Z,15.18
2017-10-12T05:33:11.766Z,11.10
2017-10-12T05:35:40.154Z,7.62
2017-10-12T05:38:08.567Z,10.40
2017-10-12T05:40:36.943Z,6.12
2017-10-12T05:43:05.315Z,6.50
2017-10-12T05:45:33.757Z,6.50
2017-10-12T05:48:02.139Z,6.35
2017-10-12T05:50:30.507Z,7.82
2017-10-12T05:52:58.926Z,6.20
2017-10-12T05:55:27.301Z,18.35
2017-10-12T05:57:55.695Z,8.63
2017-10-12T06:00:24.095Z,6.70
2017-10-12T06:02:53.314Z,14.30
2017-10-12T06:05:21.679Z,6.72
2017-10-12T06:07:50.872Z,10.45
2017-10-12T06:10:20.046Z,5.57
2017-10-12T06:12:48.442Z,7.62
2017-10-12T06:15:17.647Z,4.60
2017-10-12T06:17:46.818Z,13.85
2017-10-12T06:20:15.204Z,10.40
2017-10-12T06:22:43.599Z,21.85
2017-10-12T06:25:12.746Z,11.05
2017-10-12T06:27:41.123Z,8.68
2017-10-12T06:30:09.550Z,7.03
2017-10-12T06:32:40.562Z,18.35
2017-10-12T06:35:08.972Z,8.68
2017-10-12T06:37:38.149Z,19.62
2017-10-12T06:40:06.526Z,34.10
2017-10-12T06:42:34.922Z,16.90
2017-10-12T06:45:04.151Z,28.90
2017-10-12T06:47:32.601Z,19.23
2017-10-12T06:50:01.749Z,8.37
2017-10-12T06:52:30.210Z,10.87
2017-10-12T06:54:58.610Z,11.80
2017-10-12T06:57:26.987Z,12.43
2017-10-12T06:59:55.476Z,17.97
2017-10-12T07:02:23.851Z,21.10
2017-10-12T07:04:52.325Z,10.87
2017-10-12T07:07:20.739Z,11.03
2017-10-12T07:09:49.128Z,8.37
2017-10-12T07:12:17.509Z,6.90
2017-10-12T07:14:46.722Z,10.93
2017-10-12T07:17:15.109Z,8.33
2017-10-12T07:19:43.483Z,5.33
2017-10-12T07:22:12.659Z,13.13
2017-10-12T07:24:41.820Z,11.50
2017-10-12T07:27:10.199Z,12.10
2017-10-12T07:29:38.604Z,5.70
2017-10-12T07:32:06.983Z,8.63
2017-10-12T07:34:35.365Z,18.93
2017-10-12T07:37:03.845Z,7.77
2017-10-12T07:39:32.997Z,4.90
2017-10-12T07:42:01.375Z,6.27
2017-10-12T07:44:29.805Z,8.73
2017-10-12T07:46:58.182Z,7.10
2017-10-12T07:49:27.611Z,13.30
2017-10-12T07:51:56.031Z,7.47
2017-10-12T07:54:24.409Z,5.07
2017-10-12T07:56:52.807Z,11.23
2017-10-12T07:59:21.261Z,8.17
2017-10-12T08:01:49.648Z,6.23
2017-10-12T08:04:18.048Z,7.87
2017-10-12T08:06:46.496Z,6.63
2017-10-12T08:09:14.871Z,7.57
2017-10-12T08:11:43.267Z,4.20
2017-10-12T08:14:11.675Z,10.93
2017-10-12T08:16:40.840Z,5.83
2017-10-12T08:19:09.228Z,7.30
2017-10-12T08:21:37.650Z,16.43
2017-10-12T08:24:06.027Z,3.33
2017-10-12T08:26:34.407Z,5.03
2017-10-12T08:29:02.835Z,4.00
2017-10-12T08:31:31.239Z,7.80
2017-10-12T08:33:59.622Z,3.40
2017-10-12T08:36:28.799Z,5.77
2017-10-12T08:38:57.179Z,5.00
2017-10-12T08:41:25.639Z,6.50
2017-10-12T08:43:54.054Z,8.93
2017-10-12T08:46:22.460Z,3.03
2017-10-12T08:48:51.607Z,3.33
2017-10-12T08:51:20.018Z,5.37
2017-10-12T08:53:49.310Z,18.43
2017-10-12T08:56:17.869Z,7.63
2017-10-12T08:58:46.281Z,6.90
2017-10-12T09:01:15.424Z,5.93
2017-10-12T09:03:43.802Z,5.30
2017-10-12T09:06:12.344Z,11.20
2017-10-12T09:08:41.492Z,6.00
2017-10-12T09:11:09.889Z,3.47
2017-10-12T09:13:39.269Z,24.87
2017-10-12T09:16:07.674Z,6.43
2017-10-12T09:18:36.107Z,9.57
2017-10-12T09:21:04.534Z,3.45
2017-10-12T09:23:32.911Z,8.60
2017-10-12T09:26:23.778Z,12.33
2017-10-12T09:28:52.164Z,11.40
2017-10-12T09:31:20.584Z,2.87
2017-10-12T09:33:50.431Z,7.27
2017-10-12T09:36:18.828Z,2.50
2017-10-12T09:38:47.243Z,4.53
2017-10-12T09:41:15.680Z,4.40
2017-10-12T09:43:44.063Z,9.43
2017-10-12T09:46:12.463Z,13.77
2017-10-12T09:48:40.911Z,7.53
2017-10-12T09:51:09.371Z,9.67
2017-10-12T09:53:38.583Z,7.47
2017-10-12T09:56:07.031Z,9.23
2017-10-12T09:58:35.431Z,6.73
2017-10-12T10:01:03.831Z,7.80
2017-10-12T10:03:32.269Z,4.10
2017-10-12T10:06:01.457Z,4.28
2017-10-12T10:08:30.691Z,6.97
2017-10-12T10:10:59.127Z,3.77
2017-10-12T10:13:27.503Z,4.03
2017-10-12T10:15:55.894Z,10.90
2017-10-12T10:18:24.316Z,8.93
2017-10-12T10:20:52.720Z,4.20
2017-10-12T10:23:21.131Z,10.50
2017-10-12T10:25:49.547Z,5.70
2017-10-12T10:28:17.940Z,6.60
2017-10-12T10:30:46.351Z,8.50
2017-10-12T10:33:14.778Z,4.60
2017-10-12T10:35:43.178Z,6.25
2017-10-12T10:38:11.582Z,9.45
2017-10-12T10:40:40.025Z,10.18
2017-10-12T10:43:08.411Z,6.35
2017-10-12T10:45:36.802Z,3.03
2017-10-12T10:48:05.215Z,6.40
2017-10-12T10:50:33.595Z,10.05
2017-10-12T10:53:01.984Z,7.43
2017-10-12T10:55:30.502Z,13.00
2017-10-12T10:57:59.131Z,7.15
2017-10-12T11:00:27.510Z,8.85
2017-10-12T11:02:55.941Z,13.73
2017-10-12T11:05:24.324Z,6.68
2017-10-12T11:07:52.706Z,5.80
2017-10-12T11:10:21.120Z,4.57
2017-10-12T11:12:49.503Z,5.60
2017-10-12T11:15:17.888Z,13.02
2017-10-12T11:17:46.342Z,6.03
2017-10-12T11:20:14.746Z,11.00
2017-10-12T11:22:43.122Z,5.37
2017-10-12T11:25:11.536Z,4.07
2017-10-12T11:27:40.683Z,3.78
2017-10-12T11:30:09.092Z,6.03
2017-10-12T11:32:37.514Z,3.53
2017-10-12T11:35:05.888Z,4.05
2017-10-12T11:37:34.266Z,5.20
2017-10-12T11:40:02.682Z,7.15
2017-10-12T11:42:31.059Z,4.30
2017-10-12T11:44:59.466Z,6.90
2017-10-12T11:47:28.678Z,7.85
2017-10-12T11:49:57.830Z,8.75
2017-10-12T11:52:26.213Z,7.10
2017-10-12T11:54:54.655Z,9.75
2017-10-12T11:57:23.142Z,11.50
2017-10-12T11:59:51.522Z,8.82
2017-10-12T12:02:19.979Z,9.02
2017-10-12T12:04:48.355Z,6.40
2017-10-12T12:07:16.735Z,8.68
2017-10-12T12:09:45.144Z,5.15
2017-10-12T12:12:13.543Z,4.45
2017-10-12T12:14:41.923Z,5.47
2017-10-12T12:17:10.358Z,3.42
2017-10-12T12:19:38.771Z,4.15
2017-10-12T12:22:07.161Z,5.70
2017-10-12T12:24:35.629Z,15.48
2017-10-12T12:27:04.022Z,7.18
2017-10-12T12:29:32.402Z,5.40
2017-10-12T12:32:01.587Z,3.12
2017-10-12T12:34:30.007Z,3.00
2017-10-12T12:36:59.150Z,4.55
2017-10-12T12:39:27.579Z,3.15
2017-10-12T12:41:56.746Z,7.75
2017-10-12T12:44:25.132Z,9.48
2017-10-12T12:46:53.567Z,4.05
2017-10-12T12:49:21.973Z,4.10
2017-10-12T12:51:50.356Z,4.70
2017-10-12T12:54:18.776Z,3.25
2017-10-12T12:56:47.925Z,4.80
2017-10-12T12:59:16.316Z,4.00
2017-10-12T13:01:44.785Z,6.30
2017-10-12T13:04:13.163Z,9.00
2017-10-12T13:06:41.550Z,8.43
2017-10-12T13:09:09.999Z,6.80
2017-10-12T13:11:38.378Z,3.97
2017-10-12T13:14:06.751Z,2.83
2017-10-12T13:16:35.154Z,7.50
2017-10-12T13:19:03.546Z,5.20
2017-10-12T13:21:31.941Z,14.43
2017-10-12T13:24:00.363Z,2.87
2017-10-12T13:26:28.748Z,3.53
2017-10-12T13:28:57.128Z,4.77
2017-10-12T13:31:25.548Z,2.80
2017-10-12T13:33:53.960Z,8.05
2017-10-12T13:36:23.139Z,5.25
2017-10-12T13:38:52.284Z,2.90
2017-10-12T13:41:20.889Z,12.60
2017-10-12T13:43:49.271Z,8.57
2017-10-12T13:46:17.729Z,2.67
2017-10-12T13:48:46.154Z,5.28
2017-10-12T13:51:14.537Z,9.82
2017-10-12T13:53:43.192Z,1.58
2017-10-12T13:56:11.642Z,9.38
2017-10-12T13:58:40.035Z,11.02
2017-10-12T14:01:08.443Z,4.50
2017-10-12T14:03:36.817Z,3.67
2017-10-12T14:06:05.300Z,7.40
2017-10-12T14:08:33.678Z,6.97
2017-10-12T14:11:02.082Z,21.30
2017-10-12T14:13:30.574Z,4.00
2017-10-12T14:15:58.990Z,8.85
2017-10-12T14:18:27.424Z,5.10
2017-10-12T14:20:56.688Z,4.87
2017-10-12T14:23:25.075Z,4.05
2017-10-12T14:25:53.470Z,4.97
2017-10-12T14:28:21.855Z,6.93
2017-10-12T14:30:50.511Z,2.30
2017-10-12T14:33:18.976Z,4.50
2017-10-12T14:35:47.348Z,6.20
2017-10-12T14:38:15.763Z,5.03
2017-10-12T14:40:44.147Z,8.27
2017-10-12T14:43:12.579Z,2.97
2017-10-12T14:45:40.963Z,5.90
2017-10-12T14:48:09.344Z,3.70
2017-10-12T14:50:37.742Z,5.03
2017-10-12T14:53:06.126Z,2.30
2017-10-12T14:55:34.783Z,3.95
2017-10-12T14:58:03.162Z,5.20
2017-10-12T15:00:31.540Z,8.77
2017-10-12T15:02:59.966Z,4.82
2017-10-12T15:05:28.362Z,3.30
2017-10-12T15:07:57.715Z,4.32
2017-10-12T15:10:26.090Z,3.20
2017-10-12T15:12:54.472Z,7.10
2017-10-12T15:15:22.881Z,3.22
2017-10-12T15:17:51.256Z,5.90
2017-10-12T15:20:19.825Z,6.32
2017-10-12T15:22:48.209Z,7.37
2017-10-12T15:25:16.595Z,4.25
2017-10-12T15:27:44.998Z,16.08
2017-10-12T15:30:14.143Z,4.45
2017-10-12T15:32:42.784Z,9.02
2017-10-12T15:35:11.930Z,21.62
2017-10-12T15:37:40.308Z,8.65
2017-10-12T15:40:08.710Z,5.45
2017-10-12T15:42:37.160Z,6.85
2017-10-12T15:45:05.751Z,5.65
2017-10-12T15:47:34.147Z,4.43
2017-10-12T15:50:02.594Z,4.75
2017-10-12T15:52:31.002Z,4.30
2017-10-12T15:54:59.395Z,7.12
2017-10-12T15:57:28.863Z,5.65
2017-10-12T15:59:57.247Z,4.80
2017-10-12T16:02:25.628Z,5.07
2017-10-12T16:04:54.207Z,7.30
2017-10-12T16:07:22.589Z,4.82
2017-10-12T16:09:51.192Z,5.47
2017-10-12T16:12:19.573Z,6.65
2017-10-12T16:14:47.959Z,10.05
2017-10-12T16:17:16.367Z,4.65
2017-10-12T16:19:44.745Z,3.90
2017-10-12T16:22:13.362Z,6.37
2017-10-12T16:24:41.742Z,10.57
2017-10-12T16:27:10.124Z,9.90
2017-10-12T16:29:38.541Z,9.82
2017-10-12T16:32:07.689Z,4.50
2017-10-12T16:34:36.955Z,5.15
2017-10-12T16:37:05.357Z,8.88
2017-10-12T16:39:33.765Z,8.18
2017-10-12T16:42:02.238Z,7.72
2017-10-12T16:44:30.624Z,5.93
2017-10-12T16:46:59.892Z,34.95
2017-10-12T16:49:28.605Z,44.38
2017-10-12T16:51:57.203Z,42.17
2017-10-12T16:54:25.638Z,81.00
2017-10-12T16:56:54.031Z,214.60
2017-10-12T16:59:22.496Z,88.93
2017-10-12T17:01:51.170Z,149.27
2017-10-12T17:04:19.546Z,76.50
2017-10-12T17:06:47.948Z,19.50
2017-10-12T17:09:16.465Z,18.92
2017-10-12T17:11:45.230Z,51.78
2017-10-12T17:14:14.017Z,21.40
2017-10-12T17:16:42.414Z,24.27
2017-10-12T17:19:10.843Z,14.20
2017-10-12T17:21:39.248Z,12.70
2017-10-12T17:24:07.941Z,8.00
2017-10-12T17:29:36.346Z,11.75
2017-10-12T17:32:05.443Z,6.35
2017-10-12T17:34:34.647Z,4.87
2017-10-12T17:37:03.059Z,6.75
2017-10-12T17:39:32.253Z,10.48
2017-10-12T17:42:01.431Z,7.57
2017-10-12T17:44:29.814Z,10.07
2017-10-12T17:46:59.367Z,7.65
2017-10-12T17:49:27.797Z,9.20
2017-10-12T17:51:56.855Z,9.18
2017-10-12T17:54:40.365Z,13.43
2017-10-12T17:56:53.886Z,5.10
2017-10-12T17:59:22.287Z,7.37
2017-10-12T18:01:50.686Z,14.80
2017-10-12T18:04:48.866Z,6.57
2017-10-12T18:06:50.227Z,12.80
2017-10-12T18:09:18.865Z,10.18
2017-10-12T18:14:15.932Z,9.25
2017-10-12T18:16:44.437Z,11.65
2017-10-12T18:19:13.121Z,17.17
2017-10-12T18:21:41.509Z,16.70
2017-10-12T18:24:09.915Z,8.60
2017-10-12T18:26:39.437Z,13.02
2017-10-12T18:29:08.635Z,16.85
2017-10-12T18:31:37.099Z,12.10
2017-10-12T18:34:06.247Z,12.43
2017-10-12T18:36:34.633Z,15.63
2017-10-12T18:39:03.083Z,14.55
2017-10-12T18:41:31.465Z,12.68
2017-10-12T18:43:59.943Z,8.60
2017-10-12T18:46:28.770Z,10.25
2017-10-12T18:48:57.334Z,21.65
2017-10-12T18:51:25.743Z,16.08
2017-10-12T18:53:55.255Z,10.52
2017-10-12T18:56:23.920Z,6.80
2017-10-12T18:58:52.319Z,15.73
2017-10-12T19:01:20.712Z,8.07
2017-10-12T19:03:49.903Z,13.70
2017-10-12T19:06:18.315Z,11.02
2017-10-12T19:08:47.039Z,9.20
2017-10-12T19:11:17.712Z,9.50
2017-10-12T19:13:46.883Z,14.85
2017-10-12T19:16:15.306Z,10.95
2017-10-12T19:18:43.730Z,10.30
2017-10-12T19:21:12.326Z,16.75
2017-10-12T19:23:44.270Z,9.85
2017-10-12T19:26:13.328Z,12.25
2017-10-12T19:28:41.790Z,11.88
2017-10-12T19:31:10.967Z,11.85
2017-10-12T19:33:39.368Z,14.02
2017-10-12T19:36:08.527Z,11.43
2017-10-12T19:38:36.937Z,21.08
2017-10-12T19:43:34.703Z,16.92
2017-10-12T19:46:03.111Z,13.55
2017-10-12T19:48:32.249Z,17.80
2017-10-12T19:53:29.218Z,11.98
2017-10-12T19:58:26.895Z,16.73
2017-10-12T20:00:55.376Z,16.35
2017-10-12T20:03:24.318Z,20.90
2017-10-12T20:05:53.534Z,10.57
2017-10-12T20:08:21.951Z,10.50
2017-10-12T20:10:51.762Z,12.60
2017-10-12T20:13:20.143Z,15.57
2017-10-12T20:15:49.026Z,10.38
2017-10-12T20:18:17.415Z,20.73
2017-10-12T20:20:45.914Z,23.27
2017-10-12T20:23:14.334Z,33.90
2017-10-12T20:25:42.748Z,27.70
2017-10-12T20:28:11.326Z,14.95
2017-10-12T20:30:39.742Z,21.00
2017-10-12T20:33:08.947Z,9.48
2017-10-12T20:35:38.216Z,12.98
2017-10-12T20:38:06.672Z,14.05
2017-10-12T20:40:35.366Z,13.38
2017-10-12T20:43:03.812Z,8.90
2017-10-12T20:45:32.327Z,11.00
2017-10-12T20:48:00.776Z,15.15
2017-10-12T20:50:29.276Z,10.15
2017-10-12T20:52:58.173Z,16.60
2017-10-12T20:55:26.783Z,11.48
2017-10-12T20:57:55.172Z,13.90
2017-10-12T21:00:25.087Z,12.98
2017-10-12T21:02:53.470Z,13.35
2017-10-12T21:05:22.830Z,14.32
2017-10-12T21:07:51.440Z,12.52
2017-10-12T21:10:20.635Z,18.00
2017-10-12T21:12:50.894Z,13.05
2017-10-12T21:15:19.375Z,13.88
2017-10-12T21:17:48.182Z,15.38
2017-10-12T21:20:16.679Z,15.50
2017-10-12T21:22:45.328Z,7.78
2017-10-12T21:25:13.742Z,17.12
2017-10-12T21:27:42.127Z,7.78
2017-10-12T21:30:10.824Z,15.68
2017-10-12T21:32:39.471Z,11.12
2017-10-12T21:35:07.919Z,12.95
2017-10-12T21:37:37.107Z,13.95
2017-10-12T21:40:05.486Z,15.73
2017-10-12T21:42:34.152Z,17.17
2017-10-12T21:45:02.552Z,14.87
2017-10-12T21:47:31.845Z,17.27
2017-10-12T21:50:00.252Z,16.80
2017-10-12T21:52:28.643Z,13.45
2017-10-12T21:54:57.744Z,13.85
2017-10-12T21:57:26.173Z,9.75
2017-10-12T21:59:54.557Z,21.40
2017-10-12T22:02:22.955Z,13.10
2017-10-12T22:04:51.336Z,13.70
2017-10-12T22:07:21.230Z,16.95
2017-10-12T22:09:49.624Z,13.95
2017-10-12T22:12:18.778Z,22.13
2017-10-12T22:14:47.180Z,13.57
2017-10-12T22:17:15.576Z,14.13
2017-10-12T22:19:45.656Z,12.77
2017-10-12T22:22:14.662Z,15.25
2017-10-12T22:24:43.376Z,10.43
2017-10-12T22:27:11.817Z,6.70
2017-10-12T22:29:40.205Z,12.02
2017-10-12T22:32:08.674Z,10.25
2017-10-12T22:34:38.004Z,8.32
2017-10-12T22:37:06.414Z,12.65
2017-10-12T22:39:34.866Z,16.02
2017-10-12T22:42:04.071Z,11.55
2017-10-12T22:44:34.054Z,15.40
2017-10-12T22:47:02.447Z,20.92
2017-10-12T22:49:32.000Z,9.40
2017-10-12T22:52:00.656Z,11.40
2017-10-12T22:54:29.804Z,11.12
2017-10-12T22:56:58.383Z,10.95
2017-10-12T22:59:26.758Z,13.60
2017-10-12T23:01:55.179Z,12.52
2017-10-12T23:04:23.591Z,18.17
2017-10-12T23:06:51.964Z,9.40
2017-10-12T23:09:20.578Z,19.75
2017-10-12T23:11:48.958Z,16.58
2017-10-12T23:14:17.340Z,11.38
2017-10-12T23:16:45.751Z,12.48
2017-10-12T23:19:15.657Z,19.17
2017-10-12T23:21:44.362Z,9.15
2017-10-12T23:24:13.645Z,16.95
2017-10-12T23:26:42.031Z,11.68
2017-10-12T23:29:10.449Z,20.67
2017-10-12T23:31:38.855Z,12.85
2017-10-12T23:34:07.279Z,10.40
2017-10-12T23:36:35.656Z,12.63
2017-10-12T23:39:04.043Z,12.37
2017-10-12T23:41:33.277Z,12.88
2017-10-12T23:44:01.669Z,14.98
2017-10-12T23:46:30.241Z,8.35
2017-10-12T23:49:07.749Z,10.15
2017-10-12T23:51:36.774Z,8.88
2017-10-12T23:54:05.161Z,10.88
2017-10-12T23:56:34.342Z,12.00
2017-10-12T23:59:02.747Z,13.38
